Shattuc, Illinois
Current Conditions -  °F | °C
As of 4:15 PM on Monday 26 Jan 2015 (Local Time) from KENL Reporting Station
Overcast Overcast  
Wind Chill: 27°   Ceiling: 2600
Heat Index: 32°   Visibility: 10mi
Dew Point: 27°   Wind: 5mph
Humidity: 82%   Direction: 200°SSW
Pressure: 29.93"   Gusts: NA
Location:  38.61°N, 89.19°W
Report Text: KENL 262215Z AUTO 20004KT 10SM BKN026 OVC060 00/M03 A2993 RMK AO2 T00001027
Loading
Personal Weather Stations






























Interactive Weather Map New forecast layout! Learn more

10-Day Weather Forecast

Advertisements
Track Severe Weather on mobile